Time;durP1;ratioP1;P1;durP2;ratioP2;P2;SDS_P1;SDS_P2;PMS_P1;PMS_P2;Temp;Humidity;BMP_temperature;BMP_pressure;BME280_temperature;BME280_humidity;BME280_pressure;Samples;Min_cycle;Max_cycle;Signal;HPM_P1;HPM_P2
2024/02/24 00:00:07;;;;;;;11.25;6.43;;;7.40;99.90;;;7.25;100.00;99168.38;4918274;29;20513;-65
2024/02/24 00:02:42;;;;;;;8.23;6.40;;;7.20;99.90;;;7.29;100.00;99184.09;4918576;29;20044;-63
2024/02/24 00:05:11;;;;;;;10.60;6.50;;;7.10;99.90;;;7.33;100.00;99177.00;4918395;29;20099;-63
2024/02/24 00:07:39;;;;;;;8.68;5.90;;;7.20;99.90;;;7.37;100.00;99170.78;4918396;29;20047;-62
2024/02/24 00:10:08;;;;;;;12.32;6.30;;;7.20;99.90;;;7.26;100.00;99168.34;4918211;29;20056;-62
2024/02/24 00:12:37;;;;;;;12.23;6.40;;;7.20;99.90;;;7.30;100.00;99172.66;4918142;29;20075;-62
2024/02/24 00:15:07;;;;;;;13.40;6.72;;;7.20;99.90;;;7.33;99.92;99179.63;4918063;29;20086;-64
2024/02/24 00:17:36;;;;;;;10.88;6.03;;;7.20;99.90;;;7.28;100.00;99184.09;4918643;29;20056;-64
2024/02/24 00:20:08;;;;;;;13.30;6.53;;;7.20;99.90;;;7.36;99.98;99182.19;4917888;29;20040;-63
2024/02/24 00:22:36;;;;;;;10.85;7.20;;;7.20;99.90;;;6.54;99.71;99066.34;4918102;29;20048;-64
2024/02/24 00:25:06;;;;;;;11.75;6.32;;;7.20;99.90;;;7.00;100.00;99185.50;4932733;29;20482;-63
2024/02/24 00:27:35;;;;;;;11.65;6.80;;;7.00;99.90;;;6.95;100.00;99185.56;4918153;29;20514;-63
2024/02/24 00:30:03;;;;;;;9.65;6.57;;;6.90;99.90;;;6.86;100.00;99163.84;4918014;29;20103;-62
2024/02/24 00:32:32;;;;;;;8.80;6.57;;;6.90;99.90;;;7.09;100.00;99185.31;4918107;29;20071;-62
2024/02/24 00:35:00;;;;;;;10.95;6.55;;;7.00;99.90;;;6.89;100.00;99161.19;4917948;29;20051;-64
2024/02/24 00:37:30;;;;;;;10.43;6.10;;;7.00;99.90;;;7.16;100.00;99187.81;4917689;29;20080;-63
2024/02/24 00:39:59;;;;;;;8.73;6.50;;;7.00;99.90;;;7.23;100.00;99192.09;4917766;29;20072;-65
2024/02/24 00:42:27;;;;;;;8.15;6.40;;;7.10;99.90;;;6.99;100.00;99167.97;4917616;29;20055;-62
2024/02/24 00:44:55;;;;;;;10.55;6.63;;;7.10;99.90;;;7.02;100.00;99194.22;4932208;29;20056;-64
2024/02/24 00:47:24;;;;;;;10.32;6.22;;;7.00;99.90;;;7.16;100.00;99186.97;4917798;29;20119;-62
2024/02/24 00:49:52;;;;;;;15.88;7.15;;;7.00;99.90;;;7.07;100.00;99188.00;4917370;29;20052;-66
2024/02/24 00:52:20;;;;;;;9.57;6.38;;;7.00;99.90;;;7.17;100.00;99193.94;4917440;29;20052;-65
2024/02/24 00:54:50;;;;;;;10.10;6.13;;;7.10;99.90;;;7.24;100.00;99185.03;4917574;29;20048;-62
2024/02/24 00:57:18;;;;;;;6.88;6.00;;;7.10;99.90;;;7.19;100.00;99195.66;4917320;29;20111;-63
2024/02/24 00:59:47;;;;;;;8.32;6.22;;;7.10;99.90;;;7.29;100.00;99205.13;4917270;29;20048;-62
2024/02/24 01:02:15;;;;;;;9.90;7.05;;;7.10;99.90;;;7.37;100.00;99210.25;4917278;29;20050;-64
2024/02/24 01:04:44;;;;;;;7.95;6.20;;;7.20;99.90;;;7.38;99.99;99204.06;4931048;29;20402;-62
2024/02/24 01:07:15;;;;;;;9.85;6.20;;;7.30;99.90;;;7.38;99.53;99196.19;4917456;29;20131;-65
2024/02/24 01:09:44;;;;;;;7.82;6.32;;;7.20;99.90;;;7.37;99.52;99197.09;4917096;29;20044;-63
2024/02/24 01:12:13;;;;;;;10.95;5.80;;;7.30;99.90;;;7.43;99.56;99201.38;4917106;29;20146;-64
2024/02/24 01:14:42;;;;;;;8.15;5.60;;;7.30;99.90;;;7.41;99.10;99197.91;4917153;29;20044;-66
2024/02/24 01:17:11;;;;;;;9.55;6.10;;;7.30;99.90;;;7.37;99.44;99199.72;4917360;29;20044;-62
2024/02/24 01:19:39;;;;;;;8.23;6.20;;;7.30;99.90;;;7.21;99.27;99174.59;4917041;29;20130;-65
2024/02/24 01:22:08;;;;;;;9.90;5.90;;;7.20;99.90;;;7.35;99.33;99198.00;4917440;29;20098;-65
2024/02/24 01:24:36;;;;;;;9.63;6.13;;;7.20;99.90;;;7.33;99.33;99198.03;4916888;29;20036;-62
2024/02/24 01:27:05;;;;;;;7.63;6.10;;;7.20;99.90;;;7.30;99.65;99200.72;4916836;29;20054;-63
2024/02/24 01:29:35;;;;;;;8.85;6.35;;;7.20;99.90;;;7.36;99.33;99189.22;4917115;29;20048;-65
2024/02/24 01:32:03;;;;;;;10.32;5.97;;;7.20;99.90;;;7.38;99.66;99203.19;4917367;29;20063;-64
2024/02/24 01:34:32;;;;;;;9.85;6.65;;;7.20;99.90;;;7.39;99.62;99205.81;4916741;29;20052;-63
2024/02/24 01:37:00;;;;;;;9.32;7.25;;;7.20;99.90;;;7.42;99.36;99208.38;4916813;29;20458;-65
2024/02/24 01:39:31;;;;;;;8.10;6.55;;;7.30;99.90;;;7.41;99.34;99206.66;4916512;29;20135;-64
2024/02/24 01:41:59;;;;;;;;;;;7.30;99.90;;;7.38;99.16;99213.72;4916999;29;20040;-64
2024/02/24 01:44:27;;;;;;;9.02;7.00;;;7.30;99.90;;;7.41;99.28;99208.41;4916849;29;19923;-62
2024/02/24 01:46:57;;;;;;;9.23;7.07;;;7.30;99.90;;;7.40;99.62;99210.16;4916542;29;20056;-62
2024/02/24 01:49:26;;;;;;;10.18;6.85;;;7.30;99.90;;;7.42;99.74;99207.50;4916509;29;20056;-62
2024/02/24 01:51:54;;;;;;;9.73;6.55;;;7.30;99.90;;;7.29;99.59;99196.38;4931279;29;20146;-65
2024/02/24 01:54:24;;;;;;;6.90;6.20;;;7.30;99.90;;;7.35;100.00;99217.28;4916366;29;20044;-63
2024/02/24 01:56:53;;;;;;;10.15;6.55;;;7.20;99.90;;;7.38;100.00;99221.59;4916535;29;20071;-66
2024/02/24 01:59:22;;;;;;;8.73;6.85;;;7.30;99.90;;;7.43;100.00;99227.66;4916250;29;20514;-63
2024/02/24 02:01:51;;;;;;;7.65;6.20;;;7.30;99.90;;;7.39;100.00;99218.97;4916125;29;20066;-63
2024/02/24 02:04:21;;;;;;;9.15;6.60;;;7.30;99.90;;;7.46;99.91;99223.22;4931183;29;20098;-63
2024/02/24 02:06:49;;;;;;;8.02;7.22;;;7.30;99.90;;;7.44;100.00;99219.75;4916374;29;20052;-62
2024/02/24 02:09:18;;;;;;;10.27;6.32;;;7.40;99.90;;;7.27;100.00;99221.81;4916317;29;20048;-65
2024/02/24 02:11:47;;;;;;;9.10;6.53;;;7.20;99.90;;;7.34;100.00;99225.22;4916059;29;20058;-63
2024/02/24 02:14:30;;;;;;;9.20;6.25;;;7.20;99.90;;;7.40;100.00;99217.19;4915989;29;20084;-62
2024/02/24 02:17:00;;;;;;;8.90;6.20;;;7.30;99.90;;;7.38;100.00;99216.34;4930534;29;20478;-62
2024/02/24 02:19:30;;;;;;;12.73;6.60;;;7.30;99.90;;;7.31;100.00;99223.50;4916019;29;20048;-62
2024/02/24 02:22:02;;;;;;;8.65;6.15;;;7.20;99.90;;;7.37;100.00;99228.66;4930585;29;20052;-63
2024/02/24 02:24:32;;;;;;;8.98;6.47;;;7.20;99.90;;;7.42;99.81;99226.78;4915866;29;20068;-64
2024/02/24 02:27:02;;;;;;;7.60;5.90;;;7.30;99.90;;;7.25;99.66;99218.34;4915750;29;20048;-64
2024/02/24 02:29:30;;;;;;;10.27;6.63;;;7.20;99.90;;;7.19;100.00;99234.22;4915894;29;20505;-62
2024/02/24 02:31:59;;;;;;;8.68;6.63;;;7.10;99.90;;;7.15;100.00;99232.53;4915811;29;20538;-63
2024/02/24 02:34:27;;;;;;;9.15;6.35;;;7.10;99.90;;;7.26;100.00;99241.09;4915642;29;20103;-62
2024/02/24 02:36:55;;;;;;;10.93;7.45;;;7.10;99.90;;;7.23;99.74;99242.03;4915610;29;20135;-63
2024/02/24 02:39:24;;;;;;;11.43;6.38;;;7.10;99.90;;;7.16;100.00;99232.50;4915716;29;20119;-62
2024/02/24 02:41:54;;;;;;;9.18;6.72;;;7.00;99.90;;;7.03;100.00;99230.97;4930210;29;20052;-62
2024/02/24 02:44:23;;;;;;;9.95;6.95;;;7.00;99.90;;;7.07;100.00;99229.16;4915435;29;20107;-64
2024/02/24 02:46:52;;;;;;;8.10;7.05;;;7.00;99.90;;;7.01;100.00;99235.41;4915655;29;20056;-62
2024/02/24 02:49:21;;;;;;;10.35;6.75;;;6.90;99.90;;;7.09;100.00;99233.50;4915317;29;20048;-62
2024/02/24 02:51:49;;;;;;;11.73;6.85;;;7.00;99.90;;;7.10;100.00;99229.13;4915622;29;20052;-64
2024/02/24 02:54:18;;;;;;;9.63;6.80;;;7.00;99.90;;;7.18;100.00;99227.25;4915551;29;20052;-62
2024/02/24 02:56:46;;;;;;;9.65;6.68;;;7.00;99.90;;;7.16;100.00;99229.88;4915224;29;20048;-63
2024/02/24 02:59:16;;;;;;;8.75;6.43;;;7.00;99.90;;;7.26;99.78;99230.59;4915149;29;20055;-64
2024/02/24 03:01:48;;;;;;;12.25;7.65;;;7.10;99.90;;;7.11;99.52;99230.84;4915334;29;20142;-63
2024/02/24 03:04:17;;;;;;;10.88;6.70;;;7.00;99.90;;;7.20;99.83;99230.72;4915176;29;20095;-62
2024/02/24 03:06:45;;;;;;;9.35;6.72;;;7.00;99.90;;;7.18;99.60;99238.59;4915077;29;20068;-68
2024/02/24 03:09:13;;;;;;;16.17;7.53;;;7.00;99.90;;;7.14;100.00;99236.91;4915320;29;20051;-63
2024/02/24 03:11:42;;;;;;;8.73;7.13;;;7.00;99.90;;;7.16;99.69;99235.13;4915242;29;20475;-63
2024/02/24 03:14:11;;;;;;;12.95;7.65;;;7.00;99.90;;;7.12;99.51;99241.34;4913942;29;20067;-65
2024/02/24 03:16:41;;;;;;;12.15;7.60;;;7.00;99.90;;;7.19;99.77;99240.34;4914935;29;20577;-65
2024/02/24 03:19:10;;;;;;;10.45;7.72;;;7.10;99.90;;;7.18;99.42;99240.41;4915246;29;20044;-62
2024/02/24 03:21:38;;;;;;;9.73;7.10;;;7.00;99.90;;;7.16;99.85;99235.13;4915033;29;20369;-62
2024/02/24 03:24:07;;;;;;;12.77;7.40;;;7.00;99.90;;;7.13;99.60;99236.94;4914888;29;20498;-63
2024/02/24 03:26:35;;;;;;;13.02;7.88;;;7.00;99.90;;;7.11;99.50;99236.13;4914789;29;20553;-62
2024/02/24 03:29:04;;;;;;;11.88;8.50;;;7.00;99.90;;;7.13;99.73;99236.94;4914622;29;20083;-63
2024/02/24 03:31:32;;;;;;;11.68;8.25;;;7.00;99.90;;;7.21;99.97;99232.44;4914903;29;20490;-64
2024/02/24 03:34:02;;;;;;;10.23;8.13;;;7.00;99.90;;;7.25;99.68;99232.38;4914951;29;20052;-62
2024/02/24 03:36:31;;;;;;;11.38;8.18;;;7.10;99.90;;;7.09;99.62;99236.16;4914766;29;20532;-62
2024/02/24 03:38:59;;;;;;;11.05;8.75;;;7.00;99.90;;;6.98;100.00;99234.59;4914608;29;20547;-65
2024/02/24 03:41:32;;;;;;;11.98;8.50;;;6.90;99.90;;;7.02;100.00;99226.63;4914633;29;20048;-64
2024/02/24 03:44:00;;;;;;;11.88;9.15;;;6.90;99.90;;;6.94;100.00;99239.03;4914886;29;20048;-63
2024/02/24 03:46:29;;;;;;;12.25;9.00;;;6.90;99.90;;;7.02;100.00;99237.16;4915086;29;20078;-62
2024/02/24 03:48:57;;;;;;;9.75;8.25;;;6.90;99.90;;;6.96;100.00;99225.84;4914820;29;20541;-65
2024/02/24 03:51:27;;;;;;;12.30;9.32;;;6.80;99.90;;;7.03;100.00;99232.75;5412234;23;20145;-71
2024/02/24 03:53:55;;;;;;;11.20;9.07;;;6.90;99.90;;;7.11;100.00;99230.84;4954208;28;20050;-71
2024/02/24 03:56:24;;;;;;;15.82;9.85;;;7.00;99.90;;;7.11;100.00;99225.59;4969873;28;20042;-72
2024/02/24 03:58:52;;;;;;;14.02;9.32;;;7.00;99.90;;;7.01;100.00;99226.63;4954047;28;20078;-71
2024/02/24 04:01:20;;;;;;;14.23;9.43;;;6.90;99.90;;;7.00;100.00;99232.81;4953953;28;20469;-71
2024/02/24 04:03:49;;;;;;;15.55;9.70;;;6.90;99.90;;;6.89;100.00;99240.00;4953661;28;20082;-71
2024/02/24 04:06:18;;;;;;;13.90;10.25;;;6.80;99.90;;;6.93;100.00;99242.53;4971068;28;20126;-71
2024/02/24 04:08:48;;;;;;;15.35;9.93;;;6.80;99.90;;;6.79;100.00;99234.03;4971129;28;20070;-70
2024/02/24 04:11:17;;;;;;;13.70;10.30;;;6.80;99.90;;;6.86;100.00;99245.28;4971113;28;20046;-70
2024/02/24 04:13:45;;;;;;;16.08;11.55;;;6.70;99.90;;;6.98;100.00;99239.84;4970924;28;20058;-70
2024/02/24 04:16:14;;;;;;;16.42;11.02;;;6.80;99.90;;;7.00;100.00;99243.31;4971051;28;20133;-70
2024/02/24 04:18:42;;;;;;;18.67;11.13;;;6.80;99.90;;;7.00;100.00;99244.19;4970938;28;20051;-71
2024/02/24 04:21:11;;;;;;;17.10;11.50;;;6.90;99.90;;;6.93;100.00;99246.94;4970873;28;20047;-70
2024/02/24 04:23:39;;;;;;;15.82;10.80;;;6.80;99.90;;;6.57;100.00;99221.22;4970825;28;20035;-70
2024/02/24 04:26:09;;;;;;;16.38;11.80;;;6.70;99.90;;;6.82;100.00;99260.22;4953992;28;20043;-70
2024/02/24 04:28:36;;;;;;;16.60;11.10;;;6.70;99.90;;;6.81;100.00;99258.53;4970907;28;20046;-71
2024/02/24 04:31:05;;;;;;;17.15;11.13;;;6.70;99.90;;;6.88;100.00;99272.41;4970817;28;20058;-72
2024/02/24 04:33:33;;;;;;;15.93;11.10;;;6.80;99.90;;;6.90;100.00;99270.63;4971070;28;20074;-70
2024/02/24 04:36:02;;;;;;;16.25;10.93;;;6.80;99.90;;;6.80;100.00;99246.25;4970724;28;20051;-72
2024/02/24 04:38:31;;;;;;;13.48;10.75;;;6.80;99.90;;;6.90;100.00;99268.00;4970751;28;20126;-70
2024/02/24 04:41:00;;;;;;;14.93;11.23;;;6.80;99.90;;;6.98;100.00;99277.50;4972992;28;20070;-70
2024/02/24 04:43:29;;;;;;;15.32;10.90;;;6.80;99.90;;;6.94;100.00;99280.19;4974696;28;20038;-71
2024/02/24 04:46:02;;;;;;;16.40;11.38;;;6.80;99.90;;;6.94;100.00;99290.72;4974313;28;20046;-70
2024/02/24 04:48:30;;;;;;;15.02;11.10;;;6.80;99.90;;;7.04;100.00;99279.16;4974228;28;20047;-72
2024/02/24 04:50:58;;;;;;;14.40;10.65;;;6.90;99.90;;;6.98;100.00;99285.41;4956688;28;20059;-71
2024/02/24 04:53:30;;;;;;;16.50;11.65;;;6.90;99.90;;;7.06;100.00;99280.03;4956873;28;20452;-71
2024/02/24 04:55:59;;;;;;;14.98;11.50;;;6.90;99.90;;;7.12;100.00;99288.66;4974222;28;20412;-72
2024/02/24 04:58:29;;;;;;;15.30;10.75;;;7.00;99.90;;;7.22;100.00;99290.25;4974013;28;20050;-70
2024/02/24 05:00:57;;;;;;;19.55;11.68;;;7.10;99.90;;;7.07;100.00;99297.50;4974536;28;20050;-71
2024/02/24 05:03:26;;;;;;;17.33;11.63;;;7.00;99.90;;;7.18;100.00;99295.59;4973921;28;20492;-72
2024/02/24 05:05:54;;;;;;;18.10;12.23;;;7.10;99.90;;;7.19;100.00;99292.06;4974322;28;20051;-71
2024/02/24 05:08:23;;;;;;;14.45;11.90;;;7.10;99.90;;;7.24;100.00;99285.84;4973900;28;20038;-71
2024/02/24 05:10:51;;;;;;;17.55;11.82;;;7.10;99.90;;;7.21;100.00;99285.91;4956687;28;20124;-71
2024/02/24 05:13:20;;;;;;;15.70;11.73;;;7.10;99.90;;;7.28;100.00;99290.16;4973885;28;20178;-70
2024/02/24 05:15:49;;;;;;;15.15;11.98;;;7.10;99.90;;;7.27;100.00;99284.91;4973999;28;20093;-72
2024/02/24 05:18:18;;;;;;;14.00;12.33;;;7.10;99.90;;;7.24;100.00;99296.34;4973748;28;20082;-71
2024/02/24 05:20:46;;;;;;;16.48;12.27;;;7.10;99.90;;;7.32;100.00;99290.97;4973620;28;20341;-71
2024/02/24 05:23:15;;;;;;;15.45;12.07;;;7.20;99.90;;;7.40;100.00;99296.09;4973993;28;20043;-72
2024/02/24 05:25:43;;;;;;;16.85;12.00;;;7.20;99.90;;;7.46;100.00;99302.13;4973880;28;20383;-71
2024/02/24 05:28:15;;;;;;;14.32;11.93;;;7.30;99.90;;;7.51;100.00;99310.78;4973581;28;20047;-71
2024/02/24 05:30:44;;;;;;;16.10;12.95;;;7.40;99.90;;;7.54;100.00;99308.13;4973718;28;20065;-70
2024/02/24 05:33:14;;;;;;;18.42;13.32;;;7.40;99.90;;;7.59;100.00;99313.31;4974186;28;20373;-71
2024/02/24 05:35:42;;;;;;;19.60;13.73;;;7.40;99.90;;;7.53;100.00;99318.69;4973637;28;20046;-71
2024/02/24 05:38:12;;;;;;;14.93;13.25;;;7.40;99.90;;;7.50;100.00;99319.59;4973578;28;20051;-70
2024/02/24 05:40:40;;;;;;;16.63;14.23;;;7.40;99.90;;;7.49;100.00;99317.84;4973257;28;20401;-71
2024/02/24 05:43:09;;;;;;;18.60;13.32;;;7.30;99.90;;;7.52;100.00;99323.06;4956254;28;20086;-71
2024/02/24 05:45:38;;;;;;;16.13;13.23;;;7.30;99.90;;;7.52;100.00;99328.31;4973538;28;20408;-71
2024/02/24 05:48:07;;;;;;;16.42;13.05;;;7.30;99.90;;;7.51;100.00;99323.94;4973249;28;20054;-71
2024/02/24 05:50:37;;;;;;;16.67;12.45;;;7.40;99.90;;;7.51;100.00;99326.56;4972802;28;20051;-71
2024/02/24 05:53:05;;;;;;;17.58;12.25;;;7.30;99.90;;;7.50;100.00;99323.97;4973176;28;20065;-70
2024/02/24 05:55:37;;;;;;;15.20;12.05;;;7.30;99.90;;;7.56;100.00;99331.75;4973454;28;20050;-72
2024/02/24 05:58:05;;;;;;;14.05;12.40;;;7.40;99.90;;;7.50;100.00;99339.75;4973299;28;20089;-71
2024/02/24 06:00:34;;;;;;;14.30;12.52;;;7.40;99.90;;;7.53;100.00;99343.19;4973032;28;20050;-71
2024/02/24 06:03:03;;;;;;;16.17;12.82;;;7.30;99.90;;;7.56;100.00;99339.66;4972824;28;20043;-72
2024/02/24 06:05:31;;;;;;;15.60;13.27;;;7.40;99.90;;;7.54;100.00;99344.94;4955923;28;20065;-71
2024/02/24 06:08:01;;;;;;;17.45;14.18;;;7.40;99.90;;;7.44;100.00;99346.00;4955810;28;20062;-70
2024/02/24 06:10:29;;;;;;;15.03;13.07;;;7.30;99.90;;;7.25;100.00;99331.41;4973251;28;20046;-70
2024/02/24 06:13:00;;;;;;;16.40;13.15;;;7.30;99.90;;;7.36;100.00;99350.50;4973125;28;20055;-72
2024/02/24 06:15:29;;;;;;;17.60;14.32;;;7.20;99.90;;;7.38;100.00;99351.34;4955835;28;20117;-71
2024/02/24 06:17:57;;;;;;;19.83;14.80;;;7.30;99.90;;;7.41;100.00;99353.94;4955573;28;20106;-70
2024/02/24 06:20:26;;;;;;;16.25;13.45;;;7.30;99.90;;;7.32;100.00;99353.22;4972693;28;20074;-71
2024/02/24 06:22:55;;;;;;;16.92;14.38;;;7.30;99.90;;;7.47;100.00;99359.06;4972636;28;20066;-72
2024/02/24 06:25:25;;;;;;;22.50;14.40;;;7.30;99.90;;;7.39;100.00;99347.84;4972902;28;20043;-70
2024/02/24 06:27:53;;;;;;;18.67;14.40;;;7.30;99.90;;;7.42;100.00;99367.94;4973132;28;20059;-71
2024/02/24 06:30:21;;;;;;;20.92;14.20;;;7.30;99.90;;;7.38;100.00;99367.13;4973296;28;20109;-71
2024/02/24 06:32:50;;;;;;;16.98;14.05;;;7.20;99.90;;;7.40;100.00;99359.19;4972905;28;20097;-71
2024/02/24 06:35:18;;;;;;;16.92;13.75;;;7.30;99.90;;;7.47;100.00;99371.38;4972774;28;20374;-71
2024/02/24 06:37:47;;;;;;;14.98;13.27;;;7.30;99.90;;;7.38;100.00;99367.13;4972640;28;20039;-71
2024/02/24 06:40:16;;;;;;;15.30;13.70;;;7.30;99.90;;;7.50;100.00;99372.19;4972648;28;20440;-71
2024/02/24 06:42:58;;;;;;;;;;;7.30;99.90;;;7.27;100.00;99358.53;4955563;28;20544;-70
2024/02/24 06:45:26;;;;;;;15.43;13.13;;;7.30;99.90;;;7.47;100.00;99385.38;4972316;28;19964;-70
2024/02/24 06:47:54;;;;;;;15.95;12.50;;;7.30;99.90;;;7.32;100.00;99390.88;4972050;28;20135;-71
2024/02/24 06:50:23;;;;;;;16.83;13.00;;;7.30;99.90;;;7.34;100.00;99394.34;4972297;28;20046;-70
2024/02/24 06:52:51;;;;;;;17.75;13.73;;;7.20;99.90;;;7.32;100.00;99393.50;4972011;28;20062;-70
2024/02/24 06:55:20;;;;;;;16.67;12.73;;;7.20;99.90;;;7.41;100.00;99411.81;4971988;28;20122;-71
2024/02/24 06:57:49;;;;;;;15.43;12.68;;;7.20;99.90;;;7.41;100.00;99403.91;4971875;28;20113;-70
2024/02/24 07:00:19;;;;;;;14.55;12.75;;;7.30;99.90;;;7.47;100.00;99403.78;4972470;28;20051;-70
2024/02/24 07:02:48;;;;;;;14.00;11.90;;;7.30;99.90;;;7.44;100.00;99405.59;4971174;28;20043;-71
2024/02/24 07:05:17;;;;;;;15.20;12.27;;;7.30;99.90;;;7.51;100.00;99405.47;4971630;28;20567;-71
2024/02/24 07:07:46;;;;;;;14.20;12.27;;;7.40;99.90;;;7.48;100.00;99399.41;4971691;28;20047;-71
2024/02/24 07:10:14;;;;;;;14.45;12.10;;;7.30;99.90;;;7.49;100.00;99404.63;4971965;28;20057;-70
2024/02/24 07:12:43;;;;;;;16.13;12.90;;;7.30;99.90;;;7.52;100.00;99407.22;4971695;28;20070;-71
2024/02/24 07:15:12;;;;;;;15.95;12.75;;;7.40;99.90;;;7.45;100.00;99413.50;4971758;28;20047;-70
2024/02/24 07:17:43;;;;;;;14.48;12.38;;;7.30;99.90;;;7.48;100.00;99420.44;4954432;28;20762;-71
2024/02/24 07:20:13;;;;;;;16.73;12.77;;;7.30;99.90;;;7.47;100.00;99411.69;4971631;28;20054;-71
2024/02/24 07:22:42;;;;;;;13.90;11.45;;;7.30;99.90;;;7.41;99.81;99429.34;4972065;28;20043;-70
2024/02/24 07:25:11;;;;;;;12.52;11.23;;;7.30;99.90;;;7.35;99.67;99430.31;4954316;28;20050;-70
2024/02/24 07:27:39;;;;;;;15.23;12.40;;;7.30;99.90;;;7.31;99.68;99423.34;4971791;28;20042;-71
2024/02/24 07:30:09;;;;;;;12.68;10.90;;;7.20;99.90;;;7.41;99.55;99429.34;4971620;28;20050;-71
2024/02/24 07:32:37;;;;;;;14.00;12.13;;;7.20;99.90;;;7.41;98.99;99439.84;4971476;28;20752;-70
2024/02/24 07:35:12;;;;;;;14.25;11.65;;;7.30;99.90;;;7.50;99.32;99451.09;4971919;28;20046;-69
2024/02/24 07:37:40;;;;;;;15.13;10.60;;;7.30;99.90;;;7.50;99.24;99447.59;4971562;28;20110;-69
2024/02/24 07:40:11;;;;;;;13.35;11.50;;;7.30;99.90;;;7.54;99.23;99446.66;4971863;28;20050;-69
2024/02/24 07:42:39;;;;;;;13.48;11.40;;;7.40;99.90;;;7.54;99.41;99455.44;4971273;28;20058;-70
2024/02/24 07:45:09;;;;;;;12.40;11.13;;;7.40;99.90;;;7.53;99.24;99458.94;4971041;28;20461;-69
2024/02/24 07:47:37;;;;;;;15.07;11.65;;;7.40;99.90;;;7.54;99.03;99472.97;4971386;28;20098;-69
2024/02/24 07:50:08;;;;;;;12.18;10.98;;;7.40;99.90;;;7.48;99.43;99447.63;4971661;28;20125;-69
2024/02/24 07:52:38;;;;;;;13.23;11.93;;;7.40;99.90;;;7.46;98.95;99459.94;4971340;28;20062;-70
2024/02/24 07:55:07;;;;;;;13.93;12.07;;;7.40;99.90;;;7.49;98.59;99465.13;4971449;28;20054;-69
2024/02/24 07:57:36;;;;;;;15.60;11.63;;;7.40;99.90;;;7.62;98.67;99481.63;4971013;28;20042;-69
2024/02/24 08:00:07;;;;;;;13.95;12.48;;;7.50;99.90;;;7.60;98.81;99479.03;4971039;28;20102;-70
2024/02/24 08:02:36;;;;;;;15.98;11.60;;;7.40;99.90;;;7.62;98.47;99493.03;4971695;28;20054;-68
2024/02/24 08:05:06;;;;;;;14.50;12.25;;;7.40;99.90;;;7.67;98.60;99485.03;4953998;28;20043;-68
2024/02/24 08:07:34;;;;;;;14.32;12.25;;;7.50;99.90;;;7.68;98.51;99495.56;4971664;28;20039;-69
2024/02/24 08:10:05;;;;;;;14.85;12.25;;;7.50;99.90;;;7.74;98.83;99490.19;4971263;28;20047;-70
2024/02/24 08:12:33;;;;;;;13.88;12.18;;;7.60;99.90;;;7.70;97.87;99480.63;4970839;28;20097;-67
2024/02/24 08:15:02;;;;;;;14.70;12.27;;;7.60;99.90;;;7.74;98.13;99495.44;4973501;28;20058;-66
2024/02/24 08:17:30;;;;;;;15.63;13.48;;;7.60;99.90;;;7.64;98.46;99493.00;4974751;28;20093;-68
2024/02/24 08:19:59;;;;;;;16.83;12.88;;;7.60;99.90;;;7.70;98.33;99504.31;4974690;28;20417;-69
2024/02/24 08:22:27;;;;;;;19.48;13.38;;;7.50;99.90;;;7.64;98.54;99493.88;4974851;28;20412;-69
2024/02/24 08:24:55;;;;;;;15.85;13.38;;;7.50;99.90;;;7.58;98.75;99470.28;4974761;28;20039;-69
2024/02/24 08:27:25;;;;;;;14.07;12.55;;;7.60;99.90;;;7.77;98.75;99500.69;4974593;28;20496;-67
2024/02/24 08:29:54;;;;;;;19.35;13.73;;;7.60;99.90;;;7.64;98.42;99511.41;4974831;28;20046;-70
2024/02/24 08:32:22;;;;;;;14.75;12.50;;;7.60;99.90;;;7.60;98.00;99507.09;4975179;28;20109;-69
2024/02/24 08:34:51;;;;;;;15.73;12.30;;;7.50;99.90;;;7.70;97.87;99503.44;4975053;28;20050;-69
2024/02/24 08:37:19;;;;;;;15.27;13.00;;;7.50;99.90;;;7.54;97.98;99473.84;4974703;28;20043;-69
2024/02/24 08:39:48;;;;;;;13.43;12.02;;;7.60;99.90;;;7.81;98.25;99512.91;4974488;28;20388;-69
2024/02/24 08:42:16;;;;;;;14.00;12.30;;;7.60;99.90;;;7.72;97.66;99509.53;4974730;28;20039;-68
2024/02/24 08:44:46;;;;;;;14.57;11.32;;;7.60;99.90;;;7.61;97.24;99519.34;4974342;28;20512;-69
2024/02/24 08:47:15;;;;;;;13.98;11.70;;;7.50;99.90;;;7.65;96.93;99518.41;4974501;28;20046;-69
2024/02/24 08:49:43;;;;;;;18.20;11.38;;;7.50;99.90;;;7.50;96.58;99481.78;4974488;28;20139;-68
2024/02/24 08:52:11;;;;;;;15.10;11.88;;;7.50;99.90;;;7.60;96.89;99518.50;4974427;28;20055;-68
2024/02/24 08:54:40;;;;;;;17.55;12.63;;;7.40;99.90;;;7.62;96.71;99511.44;4974874;28;20051;-68
2024/02/24 08:57:08;;;;;;;14.88;12.38;;;7.50;99.90;;;7.51;96.73;99526.50;4974222;28;20069;-68
2024/02/24 08:59:37;;;;;;;17.52;12.57;;;7.40;99.90;;;7.50;96.82;99513.34;4974263;28;20050;-68
2024/02/24 09:02:07;;;;;;;15.60;12.10;;;7.40;99.90;;;7.56;96.89;99524.69;4957496;28;20050;-68
2024/02/24 09:04:39;;;;;;;15.50;11.50;;;7.40;99.90;;;7.50;97.18;99508.97;4974367;28;20047;-68
2024/02/24 09:07:07;;;;;;;12.80;10.48;;;7.40;99.90;;;7.48;97.32;99531.81;4974101;28;20079;-68
2024/02/24 09:09:36;;;;;;;13.60;11.32;;;7.40;99.90;;;7.57;97.15;99522.94;4974268;28;20094;-68
2024/02/24 09:12:05;;;;;;;11.50;10.27;;;7.40;99.90;;;7.53;97.25;99537.00;4974446;28;20050;-69
2024/02/24 09:14:33;;;;;;;13.07;10.18;;;7.40;99.90;;;7.51;96.90;99549.31;4974037;28;20051;-69
2024/02/24 09:17:03;;;;;;;12.95;9.88;;;7.40;99.90;;;7.48;97.06;99550.22;4974068;28;20383;-68
2024/02/24 09:19:33;;;;;;;11.98;9.45;;;7.40;99.90;;;7.46;96.54;99543.22;4974129;28;20050;-69
2024/02/24 09:22:01;;;;;;;12.63;10.18;;;7.30;99.90;;;7.46;96.87;99540.59;4974245;28;20047;-69
2024/02/24 09:24:30;;;;;;;12.05;9.55;;;7.30;99.90;;;7.38;96.99;99556.47;4973907;28;20047;-68
2024/02/24 09:26:58;;;;;;;13.45;8.75;;;7.30;99.90;;;7.37;97.17;99540.72;4973141;28;20046;-69
2024/02/24 09:29:27;;;;;;;10.88;8.68;;;7.20;99.90;;;7.39;97.14;99557.34;4973824;28;20054;-68
2024/02/24 09:31:55;;;;;;;9.63;8.68;;;7.20;99.90;;;7.48;96.65;99554.59;4956206;28;20054;-68
2024/02/24 09:34:24;;;;;;;9.10;8.15;;;7.30;99.90;;;7.47;96.74;99560.75;4973768;28;20051;-68
2024/02/24 09:36:55;;;;;;;10.57;8.43;;;7.30;99.90;;;7.41;96.35;99556.47;4956101;28;20749;-68
2024/02/24 09:39:23;;;;;;;10.20;7.63;;;7.30;99.90;;;7.37;95.96;99564.41;4973357;28;20420;-69
2024/02/24 09:41:52;;;;;;;8.20;7.28;;;7.30;99.90;;;7.34;95.50;99554.78;4973205;28;20227;-68
2024/02/24 09:44:20;;;;;;;10.38;7.45;;;7.30;99.90;;;7.29;94.99;99565.38;4973232;28;20062;-69
2024/02/24 09:46:49;;;;;;;9.18;7.68;;;7.20;99.90;;;7.36;94.99;99573.16;4973382;28;20046;-69
2024/02/24 09:49:18;;;;;;;8.35;7.40;;;7.20;99.90;;;7.47;94.85;99564.25;4972935;28;20442;-69
2024/02/24 09:51:48;;;;;;;7.30;6.60;;;7.30;99.90;;;7.50;94.83;99579.13;4973003;28;20059;-69
2024/02/24 09:54:17;;;;;;;9.07;7.00;;;7.30;99.90;;;7.46;94.11;99572.16;4973384;28;20043;-68
2024/02/24 09:56:48;;;;;;;10.65;7.53;;;7.30;99.90;;;7.46;93.69;99566.91;4955797;28;20059;-69
2024/02/24 09:59:17;;;;;;;9.40;6.53;;;7.30;99.90;;;7.56;93.28;99577.28;4973028;28;20065;-68
2024/02/24 10:01:48;;;;;;;7.70;6.90;;;7.30;99.90;;;7.60;93.09;99584.25;4972957;28;20129;-68
2024/02/24 10:04:17;;;;;;;7.50;6.72;;;7.40;99.90;;;7.48;93.17;99573.00;4971779;28;20384;-69
2024/02/24 10:06:45;;;;;;;7.93;7.22;;;7.40;99.90;;;7.62;93.55;99586.88;4972927;28;20066;-68
2024/02/24 10:09:14;;;;;;;8.18;6.68;;;7.40;99.90;;;7.54;92.49;99597.50;4972944;28;20047;-69
2024/02/24 10:11:44;;;;;;;9.25;7.38;;;7.40;99.90;;;7.62;92.65;99581.59;4972749;28;20051;-69
2024/02/24 10:14:12;;;;;;;8.73;7.45;;;7.50;99.90;;;7.65;91.91;99613.13;4972885;28;20047;-69
2024/02/24 10:16:41;;;;;;;9.90;7.90;;;7.50;99.90;;;7.65;90.93;99602.59;4972814;28;20043;-69
2024/02/24 10:19:09;;;;;;;8.60;7.80;;;7.50;99.90;;;7.67;91.00;99606.97;4972955;28;20046;-68
2024/02/24 10:21:38;;;;;;;8.65;7.75;;;7.50;99.90;;;7.65;91.21;99615.75;4972472;28;20073;-69
2024/02/24 10:24:06;;;;;;;9.70;8.02;;;7.50;99.90;;;7.70;91.04;99611.31;4972741;28;20073;-69
2024/02/24 10:26:35;;;;;;;10.40;8.43;;;7.50;99.90;;;7.70;91.20;99613.94;4972262;28;20031;-69